Time;durP1;ratioP1;P1;durP2;ratioP2;P2;SDS_P1;SDS_P2;PMS_P1;PMS_P2;Temp;Humidity;BMP_temperature;BMP_pressure;BME280_temperature;BME280_humidity;BME280_pressure;Samples;Min_cycle;Max_cycle;Signal;HPM_P1;HPM_P2
2021/10/31 00:01:59;;;;;;;22.83;12.82;;;12.20;68.00;;;;;;4960828;28;20039;-66
2021/10/31 00:04:25;;;;;;;18.27;12.65;;;12.30;67.30;;;;;;4961019;28;20039;-66
2021/10/31 00:06:50;;;;;;;20.45;12.63;;;12.40;68.00;;;;;;4954717;28;20065;-66
2021/10/31 00:09:16;;;;;;;19.38;12.30;;;12.40;67.70;;;;;;4964435;28;20478;-66
2021/10/31 00:11:42;;;;;;;22.23;13.18;;;12.50;67.30;;;;;;4945556;28;20027;-66
2021/10/31 00:14:08;;;;;;;21.42;13.70;;;12.60;67.90;;;;;;4948022;28;20810;-66
2021/10/31 00:16:34;;;;;;;18.00;12.10;;;12.50;67.60;;;;;;4952909;28;20035;-66
2021/10/31 00:18:59;;;;;;;20.73;13.25;;;12.50;67.40;;;;;;4957737;28;20074;-66
2021/10/31 00:21:26;;;;;;;19.23;12.23;;;12.50;67.80;;;;;;4961359;28;20847;-66
2021/10/31 00:23:53;;;;;;;20.65;12.75;;;12.50;68.20;;;;;;4974140;28;20067;-65
2021/10/31 00:26:19;;;;;;;17.25;11.20;;;12.50;68.10;;;;;;4954753;28;20070;-65
2021/10/31 00:28:45;;;;;;;19.23;11.98;;;12.50;68.10;;;;;;4948468;28;20043;-66
2021/10/31 00:31:11;;;;;;;18.42;12.27;;;12.50;68.30;;;;;;4945483;28;20035;-66
2021/10/31 00:33:37;;;;;;;20.65;11.95;;;12.60;68.50;;;;;;4950642;28;20038;-66
2021/10/31 00:36:04;;;;;;;17.73;11.45;;;12.60;68.90;;;;;;4955718;28;20039;-66
2021/10/31 00:38:30;;;;;;;17.63;12.13;;;12.60;68.70;;;;;;4959279;28;20047;-66
2021/10/31 00:40:55;;;;;;;17.73;11.68;;;12.60;69.20;;;;;;4960716;28;20053;-66
2021/10/31 00:43:21;;;;;;;23.95;11.98;;;12.60;69.00;;;;;;4968968;28;20086;-66
2021/10/31 00:45:48;;;;;;;15.63;11.43;;;12.60;69.50;;;;;;4949308;28;20059;-66
2021/10/31 00:48:14;;;;;;;20.42;11.43;;;12.60;69.90;;;;;;4959542;28;20041;-66
2021/10/31 00:50:41;;;;;;;21.27;12.90;;;12.70;69.50;;;;;;4972977;28;20042;-66
2021/10/31 00:53:07;;;;;;;19.52;11.43;;;12.70;70.30;;;;;;4953909;28;20035;-66
2021/10/31 00:55:32;;;;;;;18.67;11.90;;;12.70;70.30;;;;;;4948005;28;20117;-66
2021/10/31 00:57:59;;;;;;;19.95;11.63;;;12.70;70.40;;;;;;4944737;28;20841;-66
2021/10/31 01:00:26;;;;;;;18.98;11.57;;;12.70;71.20;;;;;;4947686;28;20042;-66
2021/10/31 01:02:52;;;;;;;18.60;12.27;;;12.70;70.80;;;;;;4954615;28;20093;-65
2021/10/31 01:05:21;;;;;;;18.73;11.73;;;12.80;70.80;;;;;;4959010;28;20031;-66
2021/10/31 01:08:12;;;;;;;19.67;11.20;;;12.80;70.70;;;;;;4975794;28;20852;-66
2021/10/31 01:11:05;;;;;;;17.33;11.13;;;12.80;70.80;;;;;;4955054;28;20043;-64
2021/10/31 01:13:45;;;;;;;19.00;11.45;;;12.80;70.90;;;;;;4957778;28;20081;-66
2021/10/31 01:16:36;;;;;;;18.77;11.10;;;12.90;70.50;;;;;;4959082;28;20134;-65
2021/10/31 01:19:22;;;;;;;17.77;11.45;;;12.90;70.60;;;;;;4955280;28;20567;-66
2021/10/31 01:22:00;;;;;;;18.08;11.10;;;12.80;70.80;;;;;;4951544;28;20067;-66
2021/10/31 01:24:48;;;;;;;20.27;11.43;;;12.80;71.20;;;;;;4945366;28;20034;-66
2021/10/31 01:27:38;;;;;;;21.27;11.57;;;12.80;71.80;;;;;;4947496;28;20070;-65
2021/10/31 01:30:13;;;;;;;18.17;11.93;;;12.60;72.40;;;;;;4955688;28;20089;-66
2021/10/31 01:32:39;;;;;;;19.17;11.73;;;12.40;72.90;;;;;;4965733;28;20034;-66
2021/10/31 01:35:35;;;;;;;18.23;10.75;;;12.30;73.30;;;;;;4951153;28;20038;-68
2021/10/31 01:38:13;;;;;;;16.67;11.05;;;12.20;74.10;;;;;;4957646;28;20050;-67
2021/10/31 01:41:11;;;;;;;15.73;10.15;;;12.20;74.40;;;;;;4958297;28;20093;-66
2021/10/31 01:43:56;;;;;;;17.45;10.88;;;12.20;74.50;;;;;;4964205;28;20039;-66
2021/10/31 01:46:52;;;;;;;16.73;11.30;;;12.20;74.50;;;;;;4957874;28;20146;-66
2021/10/31 01:49:42;;;;;;;15.50;10.35;;;12.30;75.20;;;;;;4952707;28;20039;-67
2021/10/31 01:52:13;;;;;;;17.17;10.75;;;12.20;74.60;;;;;;4959633;28;20043;-67
2021/10/31 01:54:56;;;;;;;19.23;10.85;;;12.10;75.10;;;;;;4949631;28;20509;-67
2021/10/31 01:57:24;;;;;;;17.90;11.15;;;12.10;75.30;;;;;;4954205;28;20045;-66
2021/10/31 02:00:04;;;;;;;17.90;10.77;;;12.10;75.70;;;;;;4947472;28;20106;-66
2021/10/31 02:02:41;;;;;;;16.67;10.35;;;12.00;75.60;;;;;;4958975;28;20721;-66
2021/10/31 02:05:09;;;;;;;15.52;11.02;;;12.00;75.70;;;;;;4956126;28;20054;-66
2021/10/31 02:07:37;;;;;;;18.00;10.68;;;12.00;76.00;;;;;;4950495;28;20120;-66
2021/10/31 02:10:04;;;;;;;16.77;10.30;;;12.00;76.30;;;;;;4945647;28;20035;-66
2021/10/31 02:12:30;;;;;;;18.13;10.40;;;11.90;76.00;;;;;;4946787;28;20057;-66
2021/10/31 02:14:56;;;;;;;15.73;9.93;;;11.90;76.30;;;;;;4951079;28;20046;-66
2021/10/31 02:17:22;;;;;;;13.80;10.05;;;11.90;76.50;;;;;;4954311;28;20035;-66
2021/10/31 02:19:52;;;;;;;16.70;11.50;;;11.90;76.70;;;;;;4945470;28;20403;-66
2021/10/31 02:22:26;;;;;;;15.93;10.38;;;11.80;76.60;;;;;;4947565;28;20066;-65
2021/10/31 02:24:52;;;;;;;16.65;10.70;;;11.80;76.30;;;;;;4955243;28;20495;-66
2021/10/31 02:27:20;;;;;;;16.20;10.43;;;11.70;76.70;;;;;;4959762;28;20046;-66
2021/10/31 02:29:52;;;;;;;15.27;10.20;;;11.80;76.60;;;;;;4964722;28;20031;-66
2021/10/31 02:32:21;;;;;;;15.20;10.68;;;11.70;76.40;;;;;;4953907;28;20046;-66
2021/10/31 02:34:48;;;;;;;15.20;9.95;;;11.70;76.90;;;;;;4971807;28;20039;-66
2021/10/31 02:37:14;;;;;;;20.77;10.82;;;11.70;76.90;;;;;;4947667;28;20046;-66
2021/10/31 02:39:40;;;;;;;15.88;9.88;;;11.70;77.40;;;;;;4945871;28;20038;-65
2021/10/31 02:42:07;;;;;;;16.67;10.07;;;11.60;77.50;;;;;;4951404;28;20042;-65
2021/10/31 02:44:33;;;;;;;18.17;10.52;;;11.60;77.80;;;;;;4951805;28;20085;-65
2021/10/31 02:46:59;;;;;;;15.23;9.73;;;11.60;78.10;;;;;;4947390;28;20035;-66
2021/10/31 02:49:26;;;;;;;15.23;9.88;;;11.50;78.20;;;;;;4949273;28;20039;-66
2021/10/31 02:52:05;;;;;;;17.45;9.90;;;11.50;78.50;;;;;;4954177;28;20035;-65
2021/10/31 02:55:14;;;;;;;15.43;10.40;;;11.40;78.90;;;;;;4951254;28;20043;-66
2021/10/31 02:57:49;;;;;;;15.80;10.27;;;11.40;79.30;;;;;;4961914;28;20050;-66
2021/10/31 03:00:17;;;;;;;17.27;10.40;;;11.30;79.30;;;;;;4966140;28;20038;-66
2021/10/31 03:02:45;;;;;;;14.90;10.45;;;11.30;79.50;;;;;;4959144;28;20142;-66
2021/10/31 03:05:11;;;;;;;15.07;9.68;;;11.40;80.00;;;;;;4944756;28;20030;-66
2021/10/31 03:07:38;;;;;;;17.55;11.15;;;11.50;79.90;;;;;;4946160;28;20747;-66
2021/10/31 03:10:05;;;;;;;15.85;9.82;;;11.60;79.50;;;;;;4952503;28;20078;-66
2021/10/31 03:12:31;;;;;;;16.60;9.63;;;11.70;79.20;;;;;;4956551;28;20035;-66
2021/10/31 03:14:57;;;;;;;17.80;10.98;;;11.70;79.00;;;;;;4961107;28;20443;-66
2021/10/31 03:17:23;;;;;;;15.35;10.48;;;11.80;79.10;;;;;;4957371;28;20034;-66
2021/10/31 03:19:49;;;;;;;15.18;9.90;;;11.80;78.90;;;;;;4953484;28;20559;-66
2021/10/31 03:22:15;;;;;;;15.05;10.32;;;11.80;79.10;;;;;;4946527;28;20038;-66
2021/10/31 03:24:40;;;;;;;16.30;9.95;;;11.90;78.90;;;;;;4944937;28;20031;-66
2021/10/31 03:27:07;;;;;;;17.60;10.70;;;11.80;78.90;;;;;;4949342;28;20077;-66
2021/10/31 03:29:33;;;;;;;14.25;9.23;;;11.80;79.30;;;;;;4950874;28;20035;-66
2021/10/31 03:31:59;;;;;;;15.30;10.32;;;11.80;79.10;;;;;;4973886;28;20039;-66
2021/10/31 03:34:25;;;;;;;16.13;9.98;;;11.90;79.40;;;;;;4960965;28;20042;-66
2021/10/31 03:36:51;;;;;;;16.30;10.05;;;11.90;79.00;;;;;;4955152;28;20035;-66
2021/10/31 03:39:19;;;;;;;16.00;9.93;;;11.90;79.40;;;;;;4965370;28;20035;-66
2021/10/31 03:41:46;;;;;;;17.92;10.00;;;11.90;79.40;;;;;;4960416;28;20042;-66
2021/10/31 03:44:16;;;;;;;15.52;9.88;;;11.90;79.40;;;;;;4958505;28;20138;-66
2021/10/31 03:46:43;;;;;;;14.43;9.43;;;11.90;79.60;;;;;;4954186;28;20035;-66
2021/10/31 03:49:09;;;;;;;14.63;9.35;;;12.00;79.60;;;;;;4948469;28;20046;-67
2021/10/31 03:51:35;;;;;;;16.45;9.80;;;12.00;79.60;;;;;;4943345;28;20055;-66
2021/10/31 03:54:01;;;;;;;13.90;9.38;;;12.00;79.70;;;;;;4948124;28;20039;-66
2021/10/31 03:56:27;;;;;;;14.85;9.40;;;12.00;79.70;;;;;;4959789;28;20031;-66
2021/10/31 03:58:52;;;;;;;15.80;9.52;;;12.00;79.80;;;;;;4958029;28;20031;-66
2021/10/31 04:01:18;;;;;;;14.07;9.45;;;12.00;80.10;;;;;;4961080;28;20023;-66
2021/10/31 04:03:44;;;;;;;11.57;8.43;;;12.00;80.30;;;;;;4955933;28;20153;-66
2021/10/31 04:06:12;;;;;;;16.83;9.32;;;11.90;80.80;;;;;;4951285;28;20105;-66
2021/10/31 04:08:40;;;;;;;13.15;8.48;;;12.00;80.60;;;;;;4957405;28;20805;-66
2021/10/31 04:11:07;;;;;;;13.57;9.32;;;12.00;80.60;;;;;;4944891;28;20142;-66
2021/10/31 04:13:33;;;;;;;15.45;9.10;;;11.90;81.00;;;;;;4949520;28;20035;-65
2021/10/31 04:15:58;;;;;;;15.15;9.02;;;11.90;81.10;;;;;;4955431;28;20043;-66
2021/10/31 04:18:24;;;;;;;14.15;8.48;;;11.90;81.20;;;;;;4961122;28;20105;-66
2021/10/31 04:20:50;;;;;;;14.65;8.57;;;11.90;81.40;;;;;;4958611;28;20062;-66
2021/10/31 04:23:15;;;;;;;14.30;8.70;;;11.90;81.40;;;;;;4967723;28;20432;-66
2021/10/31 04:25:41;;;;;;;14.70;9.27;;;12.00;81.90;;;;;;4948323;28;20035;-68
2021/10/31 04:28:07;;;;;;;13.68;8.48;;;12.10;81.40;;;;;;4943288;28;20036;-66
2021/10/31 04:30:33;;;;;;;13.52;8.85;;;12.20;80.80;;;;;;4948258;28;20047;-66
2021/10/31 04:32:58;;;;;;;12.75;9.02;;;12.30;80.60;;;;;;4953196;28;20142;-66
2021/10/31 04:35:24;;;;;;;13.80;8.82;;;12.40;80.30;;;;;;4959776;28;20058;-66
2021/10/31 04:37:52;;;;;;;13.65;8.73;;;12.50;80.20;;;;;;4962198;28;20379;-66
2021/10/31 04:40:21;;;;;;;11.73;8.60;;;12.60;80.30;;;;;;4958755;28;20066;-66
2021/10/31 04:42:47;;;;;;;13.75;8.88;;;12.60;80.10;;;;;;4949785;28;20039;-66
2021/10/31 04:45:13;;;;;;;13.35;7.68;;;12.70;79.90;;;;;;4944228;28;20063;-65
2021/10/31 04:47:40;;;;;;;11.95;7.82;;;12.80;79.80;;;;;;4943792;28;20022;-66
2021/10/31 04:50:06;;;;;;;13.00;8.52;;;12.80;79.60;;;;;;4949178;28;20035;-65
2021/10/31 04:52:42;;;;;;;13.45;8.90;;;12.80;79.30;;;;;;4964537;28;20043;-66
2021/10/31 04:55:09;;;;;;;13.88;8.23;;;12.90;79.50;;;;;;4943928;28;20047;-66
2021/10/31 04:57:34;;;;;;;14.98;8.75;;;12.80;79.50;;;;;;4946082;28;20043;-65
2021/10/31 05:00:00;;;;;;;12.65;8.23;;;12.80;79.60;;;;;;4951986;28;20043;-65
2021/10/31 05:02:26;;;;;;;14.65;8.70;;;12.80;79.60;;;;;;4971274;28;20043;-66
2021/10/31 05:04:52;;;;;;;12.35;8.23;;;12.80;79.60;;;;;;4963639;28;20038;-66
2021/10/31 05:07:18;;;;;;;13.57;8.05;;;12.90;79.70;;;;;;4959967;28;20127;-66
2021/10/31 05:09:43;;;;;;;13.65;9.05;;;12.80;79.50;;;;;;4955221;28;20031;-65
2021/10/31 05:12:09;;;;;;;13.85;8.40;;;12.80;79.80;;;;;;4959387;28;20034;-66
2021/10/31 05:14:36;;;;;;;12.13;8.05;;;12.70;80.10;;;;;;4964105;28;20042;-66
2021/10/31 05:17:02;;;;;;;12.90;8.68;;;12.70;80.00;;;;;;4959011;28;20038;-66
2021/10/31 05:19:27;;;;;;;12.32;7.68;;;12.70;80.20;;;;;;4954344;28;20042;-66
2021/10/31 05:21:53;;;;;;;11.45;7.82;;;12.60;80.40;;;;;;4949754;28;20039;-66
2021/10/31 05:24:18;;;;;;;11.70;8.13;;;12.60;80.60;;;;;;4949404;28;20132;-66
2021/10/31 05:26:44;;;;;;;14.10;8.40;;;12.60;80.90;;;;;;4954202;28;20484;-66
2021/10/31 05:29:10;;;;;;;11.30;8.27;;;12.50;81.00;;;;;;4959214;28;20216;-66
2021/10/31 05:31:35;;;;;;;12.18;7.95;;;12.40;81.20;;;;;;4977893;28;20034;-66
2021/10/31 05:34:01;;;;;;;12.75;7.32;;;12.50;81.50;;;;;;4961668;28;20054;-66
2021/10/31 05:36:27;;;;;;;12.77;8.15;;;12.40;81.50;;;;;;4963899;28;20039;-66
2021/10/31 05:38:52;;;;;;;13.02;8.18;;;12.40;81.70;;;;;;4951191;28;20115;-66
2021/10/31 05:41:18;;;;;;;10.95;7.53;;;12.40;81.60;;;;;;4960942;28;20142;-66
2021/10/31 05:43:44;;;;;;;12.35;7.78;;;12.40;81.60;;;;;;4960044;28;20043;-66
2021/10/31 05:46:10;;;;;;;11.82;7.45;;;12.40;81.70;;;;;;4954848;28;20049;-65
2021/10/31 05:48:36;;;;;;;12.77;8.18;;;12.40;81.90;;;;;;4949966;28;20031;-66
2021/10/31 05:51:02;;;;;;;12.70;8.30;;;12.40;81.90;;;;;;4947291;28;20086;-66
2021/10/31 05:53:28;;;;;;;11.52;7.60;;;12.40;81.90;;;;;;4952048;28;20042;-66
2021/10/31 05:55:53;;;;;;;11.70;8.07;;;12.40;82.00;;;;;;4957249;28;20043;-66
2021/10/31 05:58:19;;;;;;;13.57;8.70;;;12.40;81.80;;;;;;4960591;28;20061;-66
2021/10/31 06:00:45;;;;;;;14.10;8.02;;;12.40;81.80;;;;;;4963490;28;20035;-66
2021/10/31 06:03:10;;;;;;;12.98;8.30;;;12.30;82.40;;;;;;4961366;28;20163;-66
2021/10/31 06:05:36;;;;;;;14.52;8.77;;;12.30;82.20;;;;;;4959254;28;20030;-66
2021/10/31 06:08:02;;;;;;;12.15;8.40;;;12.30;82.40;;;;;;4963071;28;20106;-66
2021/10/31 06:10:27;;;;;;;13.13;8.63;;;12.30;82.30;;;;;;4962967;28;20045;-66
2021/10/31 06:12:53;;;;;;;11.60;8.48;;;12.30;82.40;;;;;;4958773;28;20113;-66
2021/10/31 06:15:22;;;;;;;13.00;8.95;;;12.20;82.10;;;;;;4954368;28;20589;-66
2021/10/31 06:17:48;;;;;;;12.75;8.77;;;12.30;82.00;;;;;;4950341;28;20031;-66
2021/10/31 06:20:15;;;;;;;15.20;8.70;;;12.30;82.20;;;;;;4953220;28;20049;-66
2021/10/31 06:22:41;;;;;;;12.88;8.88;;;12.30;82.20;;;;;;4957043;28;20027;-66
2021/10/31 06:25:08;;;;;;;12.27;7.95;;;12.30;81.70;;;;;;4954761;28;20523;-66
2021/10/31 06:27:33;;;;;;;11.98;8.50;;;12.40;81.60;;;;;;4962863;28;20054;-66
2021/10/31 06:29:59;;;;;;;14.18;9.48;;;12.50;81.50;;;;;;4951128;28;20050;-66
2021/10/31 06:32:26;;;;;;;14.55;9.40;;;12.60;81.40;;;;;;4957244;28;20138;-66
2021/10/31 06:34:51;;;;;;;12.40;8.77;;;12.70;80.70;;;;;;4960869;28;20383;-66
2021/10/31 06:37:17;;;;;;;12.75;9.02;;;12.80;80.40;;;;;;4980541;28;20045;-66
2021/10/31 06:39:43;;;;;;;11.70;8.20;;;12.90;79.90;;;;;;4958654;28;20050;-66
2021/10/31 06:42:08;;;;;;;16.13;8.43;;;13.00;79.80;;;;;;4958105;28;20035;-66
2021/10/31 06:44:35;;;;;;;12.35;7.90;;;13.10;79.20;;;;;;4965534;28;20031;-66
2021/10/31 06:47:01;;;;;;;10.20;7.60;;;13.20;78.80;;;;;;4954186;28;20487;-66
2021/10/31 06:49:28;;;;;;;11.68;8.27;;;13.30;78.20;;;;;;4958459;28;20043;-66
2021/10/31 06:51:53;;;;;;;12.85;7.35;;;13.40;78.30;;;;;;4962819;28;20069;-66
2021/10/31 06:54:19;;;;;;;11.05;7.75;;;13.50;77.70;;;;;;4960400;28;20059;-66
2021/10/31 06:56:45;;;;;;;11.75;7.90;;;13.60;77.30;;;;;;4958241;28;20034;-66
2021/10/31 06:59:11;;;;;;;12.73;8.18;;;13.70;77.10;;;;;;4956717;28;20038;-66
2021/10/31 07:01:36;;;;;;;13.93;8.32;;;13.80;76.60;;;;;;4965329;28;20035;-66
2021/10/31 07:04:03;;;;;;;12.75;7.93;;;13.90;76.20;;;;;;4961443;28;20057;-66
2021/10/31 07:06:29;;;;;;;11.88;7.75;;;14.00;76.00;;;;;;4959235;28;20470;-66
2021/10/31 07:08:55;;;;;;;11.88;7.65;;;14.00;75.80;;;;;;4957053;28;20031;-66
2021/10/31 07:11:20;;;;;;;10.73;7.82;;;14.10;75.60;;;;;;4956390;28;20023;-65
2021/10/31 07:13:46;;;;;;;12.30;8.13;;;14.20;75.60;;;;;;4962045;28;20034;-67
2021/10/31 07:16:12;;;;;;;11.80;7.95;;;14.20;75.10;;;;;;4958080;28;20027;-66
2021/10/31 07:18:37;;;;;;;10.32;7.72;;;14.30;74.90;;;;;;4953015;28;20586;-67
2021/10/31 07:21:04;;;;;;;11.95;8.15;;;14.40;74.90;;;;;;4963696;28;20062;-66
2021/10/31 07:23:30;;;;;;;10.50;7.03;;;14.60;74.60;;;;;;4946152;28;20077;-66
2021/10/31 07:25:56;;;;;;;9.75;6.97;;;14.80;74.00;;;;;;4954343;28;20070;-65
2021/10/31 07:28:22;;;;;;;13.18;7.60;;;14.90;73.20;;;;;;4971386;28;20495;-66
2021/10/31 07:30:50;;;;;;;9.98;7.25;;;15.10;72.40;;;;;;4961450;28;20073;-66
2021/10/31 07:33:15;;;;;;;10.82;7.13;;;15.30;72.10;;;;;;4953438;28;20122;-66
2021/10/31 07:35:41;;;;;;;13.07;7.32;;;15.90;70.90;;;;;;4953529;28;20470;-67
2021/10/31 07:38:07;;;;;;;12.00;7.85;;;16.10;69.30;;;;;;4956807;28;20045;-66
2021/10/31 07:40:33;;;;;;;12.40;7.63;;;16.20;68.50;;;;;;4945483;28;20771;-67
2021/10/31 07:43:00;;;;;;;9.98;6.72;;;16.20;68.90;;;;;;4959627;28;20045;-66
2021/10/31 07:45:26;;;;;;;13.00;7.55;;;16.20;68.50;;;;;;4953535;28;20517;-66
2021/10/31 07:47:53;;;;;;;12.05;7.40;;;16.10;68.70;;;;;;4957941;28;20034;-66
2021/10/31 07:50:19;;;;;;;10.68;7.25;;;16.20;68.90;;;;;;4959042;28;20039;-66
2021/10/31 07:52:45;;;;;;;10.63;6.55;;;16.20;69.20;;;;;;4954031;28;20038;-66
2021/10/31 07:55:16;;;;;;;10.13;7.13;;;16.10;69.50;;;;;;4952645;28;20121;-66
2021/10/31 07:57:44;;;;;;;9.90;7.22;;;16.10;69.40;;;;;;4943376;28;20049;-66
2021/10/31 08:00:10;;;;;;;10.93;6.95;;;16.10;69.40;;;;;;4955854;28;20035;-67
2021/10/31 08:02:39;;;;;;;9.48;6.63;;;16.20;69.70;;;;;;4958993;28;20039;-66
2021/10/31 08:05:05;;;;;;;9.05;7.05;;;16.30;69.00;;;;;;4949354;28;20035;-67
2021/10/31 08:07:31;;;;;;;10.73;7.50;;;16.10;69.10;;;;;;4970997;28;20035;-66
2021/10/31 08:09:58;;;;;;;12.60;7.07;;;15.90;70.40;;;;;;4966418;28;20038;-65
2021/10/31 08:12:26;;;;;;;10.43;7.50;;;15.90;70.90;;;;;;4952927;28;20042;-66
2021/10/31 08:14:52;;;;;;;10.82;7.68;;;15.90;70.50;;;;;;4948650;28;20194;-67
2021/10/31 08:17:18;;;;;;;10.38;7.13;;;15.80;71.20;;;;;;4959691;28;20049;-69
2021/10/31 08:19:43;;;;;;;11.52;7.60;;;15.70;71.80;;;;;;4953862;28;20043;-66
2021/10/31 08:22:09;;;;;;;11.75;7.70;;;15.70;71.90;;;;;;4953277;28;20034;-67
2021/10/31 08:24:35;;;;;;;10.35;7.40;;;15.70;71.80;;;;;;4957335;28;20117;-66
2021/10/31 08:27:01;;;;;;;11.80;7.50;;;15.90;71.90;;;;;;4957474;28;20031;-66
2021/10/31 08:29:27;;;;;;;10.82;7.80;;;16.00;71.60;;;;;;4957694;28;20031;-66
2021/10/31 08:31:55;;;;;;;11.75;7.07;;;15.90;71.70;;;;;;4957731;28;20034;-66
2021/10/31 08:34:22;;;;;;;10.82;7.75;;;15.90;72.20;;;;;;4969729;28;20515;-66
2021/10/31 08:36:47;;;;;;;13.40;8.05;;;15.90;72.30;;;;;;4950897;28;20038;-66
2021/10/31 08:39:13;;;;;;;10.77;6.97;;;15.90;72.40;;;;;;4949038;28;20035;-66
2021/10/31 08:41:39;;;;;;;12.35;7.88;;;16.00;72.60;;;;;;4958128;28;20117;-66
2021/10/31 08:44:06;;;;;;;10.98;7.63;;;16.20;72.10;;;;;;4944322;28;20134;-68
2021/10/31 08:46:32;;;;;;;15.77;8.70;;;16.20;72.00;;;;;;4955917;28;20039;-67
2021/10/31 08:48:58;;;;;;;10.23;7.45;;;16.30;71.60;;;;;;4955284;28;20073;-71
2021/10/31 08:51:25;;;;;;;11.40;7.65;;;16.20;71.80;;;;;;4957073;28;20145;-70
2021/10/31 08:53:55;;;;;;;11.52;8.38;;;16.30;72.10;;;;;;4947188;28;20034;-68
2021/10/31 08:56:25;;;;;;;12.20;7.28;;;16.30;72.00;;;;;;4954872;28;20066;-70
2021/10/31 08:58:51;;;;;;;10.90;7.40;;;16.50;72.30;;;;;;4947070;28;20043;-68
2021/10/31 09:01:17;;;;;;;11.77;7.50;;;16.80;71.10;;;;;;4943837;28;20041;-71
2021/10/31 09:03:47;;;;;;;12.38;7.47;;;17.10;70.60;;;;;;4942503;28;20047;-68
2021/10/31 09:06:13;;;;;;;9.15;6.97;;;18.80;65.50;;;;;;4951947;28;20104;-69
2021/10/31 09:08:40;;;;;;;9.80;6.60;;;22.00;56.10;;;;;;4950698;28;20183;-69
2021/10/31 09:11:06;;;;;;;10.70;6.55;;;25.50;47.20;;;;;;4954370;28;20027;-69
2021/10/31 09:13:32;;;;;;;8.07;5.85;;;28.10;41.50;;;;;;4958471;28;20047;-69
2021/10/31 09:15:58;;;;;;;9.38;7.15;;;29.40;39.20;;;;;;4958066;28;20126;-69
2021/10/31 09:18:25;;;;;;;8.35;6.43;;;30.40;37.30;;;;;;4950247;28;20039;-69
2021/10/31 09:20:51;;;;;;;10.68;6.95;;;32.10;35.70;;;;;;4966101;28;20666;-69
2021/10/31 09:23:17;;;;;;;8.23;6.57;;;33.20;33.30;;;;;;4948324;28;20031;-68
2021/10/31 09:25:43;;;;;;;8.98;6.65;;;33.30;32.30;;;;;;4950472;28;20027;-67
2021/10/31 09:28:09;;;;;;;7.20;6.03;;;33.10;32.60;;;;;;4947852;28;20045;-67
2021/10/31 09:30:40;;;;;;;8.73;6.50;;;33.60;31.80;;;;;;4946513;28;20035;-69
2021/10/31 09:33:10;;;;;;;7.63;6.00;;;34.30;30.70;;;;;;4962317;28;20077;-69
2021/10/31 09:35:42;;;;;;;7.45;5.68;;;32.80;32.40;;;;;;4952847;28;20129;-69
2021/10/31 09:38:08;;;;;;;7.38;5.60;;;31.50;34.60;;;;;;4974537;28;20038;-69
2021/10/31 09:40:36;;;;;;;8.52;5.85;;;29.40;37.30;;;;;;4946877;28;20544;-68
2021/10/31 09:43:03;;;;;;;8.68;6.90;;;27.30;40.30;;;;;;4952876;28;20057;-68
2021/10/31 09:45:30;;;;;;;7.85;6.65;;;25.30;44.70;;;;;;4951877;28;20923;-68
2021/10/31 09:48:00;;;;;;;9.70;7.22;;;23.70;47.50;;;;;;4971428;28;20120;-69
2021/10/31 09:50:28;;;;;;;10.93;7.40;;;22.60;51.30;;;;;;4954250;28;20054;-68
2021/10/31 09:52:55;;;;;;;27.10;17.50;;;21.90;52.80;;;;;;4957195;28;20037;-69
2021/10/31 09:55:21;;;;;;;12.40;7.80;;;21.20;53.70;;;;;;4958849;28;20101;-68
2021/10/31 09:57:47;;;;;;;26.10;15.63;;;20.60;55.10;;;;;;4957734;28;20031;-69
2021/10/31 10:00:20;;;;;;;11.70;7.57;;;20.20;56.80;;;;;;4949439;28;20054;-69
2021/10/31 10:05:20;;;;;;;10.90;8.05;;;19.90;58.10;;;;;;4959235;28;20173;-69
2021/10/31 10:08:06;;;;;;;9.75;7.53;;;19.60;58.70;;;;;;4958703;28;20039;-69
2021/10/31 10:10:39;;;;;;;11.77;8.02;;;19.50;59.20;;;;;;4959432;28;20034;-69
2021/10/31 10:13:26;;;;;;;12.20;8.18;;;19.40;59.60;;;;;;4957959;28;20460;-69
2021/10/31 10:16:25;;;;;;;8.68;7.15;;;19.30;60.40;;;;;;4963045;28;20039;-70
2021/10/31 10:18:51;;;;;;;13.00;8.13;;;19.30;60.80;;;;;;4958552;28;20046;-70
2021/10/31 10:21:20;;;;;;;11.77;9.07;;;19.20;60.90;;;;;;4954813;28;20042;-71
2021/10/31 10:23:56;;;;;;;9.15;6.63;;;19.30;60.90;;;;;;4951052;28;20057;-68
2021/10/31 10:26:27;;;;;;;;;;;19.30;61.40;;;;;;4952186;28;20519;-68
2021/10/31 10:28:58;;;;;;;12.25;7.78;;;19.30;61.60;;;;;;4955921;28;19914;-69
2021/10/31 10:31:25;;;;;;;12.05;8.75;;;19.50;60.50;;;;;;4954503;28;20110;-69
2021/10/31 10:33:52;;;;;;;15.80;10.90;;;19.60;60.50;;;;;;4959793;28;20039;-69
2021/10/31 10:36:19;;;;;;;11.50;8.05;;;19.50;59.80;;;;;;4953391;28;20039;-70
2021/10/31 10:39:00;;;;;;;10.93;7.93;;;19.40;60.30;;;;;;4953869;28;20125;-66
2021/10/31 10:41:42;;;;;;;9.25;7.20;;;19.30;60.50;;;;;;4948286;28;20082;-64
2021/10/31 10:44:20;;;;;;;12.82;7.70;;;19.30;61.40;;;;;;4960154;28;20788;-69
2021/10/31 10:46:48;;;;;;;11.43;7.43;;;19.40;61.30;;;;;;4955643;28;20038;-68
2021/10/31 10:49:17;;;;;;;9.70;7.47;;;19.50;60.50;;;;;;4952627;28;20030;-69
2021/10/31 10:52:23;;;;;;;10.10;6.75;;;19.50;60.40;;;;;;4961646;28;20061;-69
2021/10/31 10:54:55;;;;;;;9.85;7.10;;;19.30;60.90;;;;;;4958457;28;20142;-69
2021/10/31 10:57:26;;;;;;;9.40;6.90;;;19.30;61.50;;;;;;4958949;28;20046;-68
2021/10/31 10:59:58;;;;;;;9.73;7.32;;;19.30;60.80;;;;;;4961555;28;20041;-69
2021/10/31 11:02:25;;;;;;;11.40;7.78;;;19.10;61.60;;;;;;4957831;28;20077;-68
2021/10/31 11:04:56;;;;;;;11.20;7.63;;;19.00;61.80;;;;;;4971249;28;20035;-68
2021/10/31 11:07:43;;;;;;;9.48;7.53;;;18.90;62.60;;;;;;4955792;28;20039;-68
2021/10/31 11:10:18;;;;;;;12.20;7.63;;;18.90;62.90;;;;;;4943886;28;20042;-68
2021/10/31 11:12:46;;;;;;;11.15;7.32;;;19.00;62.30;;;;;;4978878;28;20038;-68
2021/10/31 11:15:18;;;;;;;11.02;7.10;;;19.00;62.60;;;;;;4952324;28;20067;-68
2021/10/31 11:17:46;;;;;;;13.07;6.70;;;19.00;62.60;;;;;;4956112;28;20711;-68
2021/10/31 11:20:18;;;;;;;9.52;6.93;;;19.00;62.40;;;;;;4959031;28;20042;-68
2021/10/31 11:22:49;;;;;;;10.75;6.82;;;19.00;62.80;;;;;;4958782;28;20206;-68
2021/10/31 11:25:18;;;;;;;10.18;6.93;;;19.00;63.00;;;;;;4956262;28;20045;-68
2021/10/31 11:27:45;;;;;;;9.80;6.97;;;19.00;62.80;;;;;;4948943;28;20035;-68
2021/10/31 11:30:12;;;;;;;10.75;6.93;;;19.00;63.20;;;;;;4950374;28;20685;-69
2021/10/31 11:32:39;;;;;;;10.27;6.68;;;18.90;63.40;;;;;;4954379;28;20126;-68
2021/10/31 11:35:06;;;;;;;7.90;6.60;;;18.80;63.40;;;;;;4952029;28;20105;-68
2021/10/31 11:37:40;;;;;;;9.85;6.45;;;18.80;64.00;;;;;;4952099;28;20039;-69
2021/10/31 11:40:08;;;;;;;10.20;6.93;;;18.80;64.20;;;;;;4955982;28;20046;-68
2021/10/31 11:42:40;;;;;;;9.55;6.35;;;18.80;64.30;;;;;;4953994;28;20038;-69
2021/10/31 11:45:31;;;;;;;10.13;6.25;;;18.80;64.30;;;;;;4948217;28;20035;-69
2021/10/31 11:48:19;;;;;;;8.10;5.60;;;19.00;64.00;;;;;;4960746;28;20203;-68
2021/10/31 11:51:11;;;;;;;9.25;6.45;;;19.00;63.80;;;;;;4947959;28;20483;-69
2021/10/31 11:54:09;;;;;;;8.55;6.25;;;19.10;63.20;;;;;;4951358;28;20061;-69
2021/10/31 11:56:39;;;;;;;7.60;5.65;;;19.10;63.00;;;;;;4959259;28;20049;-70
2021/10/31 11:59:16;;;;;;;9.23;6.28;;;19.30;63.90;;;;;;4953645;28;20435;-69
2021/10/31 12:01:50;;;;;;;7.90;6.15;;;19.30;63.30;;;;;;4952799;28;20046;-68
2021/10/31 12:04:58;;;;;;;9.13;6.15;;;19.30;63.40;;;;;;4944515;28;20039;-68
2021/10/31 12:07:37;;;;;;;9.27;5.90;;;19.20;62.80;;;;;;4965800;28;20042;-68
2021/10/31 12:10:31;;;;;;;11.43;6.40;;;19.10;63.90;;;;;;4949359;28;20439;-68
2021/10/31 12:13:16;;;;;;;8.10;6.03;;;19.20;63.40;;;;;;4956020;28;20189;-68
2021/10/31 12:16:04;;;;;;;9.45;6.70;;;19.30;63.10;;;;;;4949929;28;20035;-68
2021/10/31 12:18:49;;;;;;;9.88;6.35;;;19.20;63.10;;;;;;4951863;28;20504;-68
2021/10/31 12:21:33;;;;;;;8.15;6.30;;;19.20;63.20;;;;;;4957143;28;20043;-68
2021/10/31 12:24:04;;;;;;;9.18;5.65;;;19.30;63.10;;;;;;4948219;28;20040;-68
2021/10/31 12:26:39;;;;;;;11.25;6.35;;;19.40;63.00;;;;;;4952635;28;20855;-67
2021/10/31 12:29:16;;;;;;;7.85;6.03;;;19.50;62.60;;;;;;4953854;28;20034;-68
2021/10/31 12:32:05;;;;;;;7.50;5.65;;;19.50;62.20;;;;;;4954722;28;20074;-68
2021/10/31 12:34:39;;;;;;;8.55;6.20;;;19.50;62.60;;;;;;4956923;28;20043;-69
2021/10/31 12:37:22;;;;;;;7.28;5.72;;;19.50;62.60;;;;;;4952395;28;20135;-69
2021/10/31 12:39:56;;;;;;;6.75;5.18;;;19.40;62.50;;;;;;4966184;28;20455;-69
2021/10/31 12:42:22;;;;;;;7.38;5.55;;;19.40;63.40;;;;;;4957931;28;20129;-69
2021/10/31 12:45:14;;;;;;;8.55;6.13;;;19.30;63.30;;;;;;4969466;28;20023;-69
2021/10/31 12:47:43;;;;;;;7.20;5.45;;;19.20;64.10;;;;;;4946629;28;20590;-69
2021/10/31 12:50:14;;;;;;;7.15;5.97;;;19.10;64.20;;;;;;4956299;28;20581;-69
2021/10/31 12:52:44;;;;;;;7.20;5.90;;;19.20;63.90;;;;;;4954522;28;20039;-69